createdAt,value
2022-08-07T00:02:35.938Z,102860.41
2022-08-07T00:04:09.236Z,102859.72
2022-08-07T00:06:51.267Z,102860.41
2022-08-07T00:09:20.870Z,102855.88
2022-08-07T00:11:55.760Z,102856.72
2022-08-07T00:14:30.495Z,102855.06
2022-08-07T00:16:59.669Z,102852.84
2022-08-07T00:20:00.318Z,102849.59
2022-08-07T00:22:14.912Z,102843.69
2022-08-07T00:24:58.951Z,102843.00
2022-08-07T00:27:25.913Z,102844.53
2022-08-07T00:30:04.419Z,102833.59
2022-08-07T00:32:49.239Z,102837.00
2022-08-07T00:35:17.468Z,102825.25
2022-08-07T00:37:47.649Z,102828.25
2022-08-07T00:40:15.647Z,102836.91
2022-08-07T00:43:02.065Z,102829.09
2022-08-07T00:45:29.299Z,102822.09
2022-08-07T00:48:09.701Z,102822.81
2022-08-07T00:50:51.274Z,102823.75
2022-08-07T00:53:20.221Z,102823.06
2022-08-07T00:56:02.894Z,102823.78
2022-08-07T00:58:32.400Z,102819.66
2022-08-07T01:00:59.048Z,102822.13
2022-08-07T01:03:56.942Z,102816.78
2022-08-07T01:06:16.605Z,102819.41
2022-08-07T01:08:53.311Z,102821.47
2022-08-07T01:12:23.838Z,102819.94
2022-08-07T01:14:07.844Z,102820.09
2022-08-07T01:16:36.724Z,102821.47
2022-08-07T01:19:18.315Z,102820.06
2022-08-07T01:21:47.123Z,102814.06
2022-08-07T01:24:14.270Z,102812.28
2022-08-07T01:26:51.708Z,102811.19
2022-08-07T01:29:20.191Z,102813.25
2022-08-07T01:31:49.288Z,102816.81
2022-08-07T01:34:18.068Z,102810.78
2022-08-07T01:36:52.565Z,102824.31
2022-08-07T01:39:40.702Z,102818.44
2022-08-07T01:42:39.338Z,102811.06
2022-08-07T01:45:04.973Z,102804.59
2022-08-07T01:48:19.571Z,102809.13
2022-08-07T01:50:29.074Z,102807.47
2022-08-07T01:52:58.429Z,102809.38
2022-08-07T01:55:38.737Z,102796.78
2022-08-07T01:58:27.331Z,102805.97
2022-08-07T02:01:10.012Z,102796.63
2022-08-07T02:03:55.931Z,102806.72
2022-08-07T02:06:31.808Z,102804.25
2022-08-07T02:09:08.920Z,102799.47
2022-08-07T02:12:02.955Z,102809.53
2022-08-07T02:14:40.379Z,102807.06
2022-08-07T02:17:10.891Z,102801.63
2022-08-07T02:20:06.609Z,102801.38
2022-08-07T02:22:33.118Z,102797.56
2022-08-07T02:25:00.766Z,102807.97
2022-08-07T02:27:34.232Z,102794.84
2022-08-07T02:30:07.165Z,102799.75
2022-08-07T02:32:38.718Z,102797.16
2022-08-07T02:35:10.795Z,102798.25
2022-08-07T02:37:43.929Z,102792.63
2022-08-07T02:40:29.967Z,102793.31
2022-08-07T02:42:58.822Z,102790.03
2022-08-07T02:45:58.749Z,102793.31
2022-08-07T02:48:15.535Z,102792.25
2022-08-07T02:50:44.048Z,102791.53
2022-08-07T02:53:15.145Z,102792.16
2022-08-07T02:56:03.413Z,102787.13
2022-08-07T02:58:33.801Z,102792.72
2022-08-07T03:01:03.094Z,102792.28
2022-08-07T03:03:49.174Z,102794.88
2022-08-07T03:06:26.184Z,102786.25
2022-08-07T03:09:01.620Z,102790.75
2022-08-07T03:11:39.018Z,102785.16
2022-08-07T03:14:19.089Z,102780.09
2022-08-07T03:16:49.296Z,102783.75
2022-08-07T03:19:16.559Z,102780.22
2022-08-07T03:21:50.811Z,102781.84
2022-08-07T03:24:26.945Z,102784.53
2022-08-07T03:26:58.885Z,102784.22
2022-08-07T03:29:30.410Z,102783.69
2022-08-07T03:31:57.923Z,102799.94
2022-08-07T03:34:27.677Z,102782.72
2022-08-07T03:36:55.113Z,102780.13
2022-08-07T03:40:00.070Z,102778.34
2022-08-07T03:42:12.510Z,102781.75
2022-08-07T03:44:39.529Z,102784.09
2022-08-07T03:47:11.537Z,102774.94
2022-08-07T03:49:42.496Z,102773.69
2022-08-07T03:52:22.283Z,102782.44
2022-08-07T03:54:55.275Z,102779.72
2022-08-07T03:58:32.675Z,102783.94
2022-08-07T04:00:14.754Z,102777.28
2022-08-07T04:02:47.328Z,102775.78
2022-08-07T04:05:14.164Z,102784.81
2022-08-07T04:07:46.581Z,102777.41
2022-08-07T04:10:15.669Z,102778.09
2022-08-07T04:12:48.791Z,102786.69
2022-08-07T04:15:17.444Z,102777.03
2022-08-07T04:18:32.001Z,102784.53
2022-08-07T04:20:31.820Z,102780.72
2022-08-07T04:23:06.256Z,102779.25
2022-08-07T04:25:36.023Z,102789.25
2022-08-07T04:28:08.124Z,102793.94
2022-08-07T04:30:43.723Z,102790.75
2022-08-07T04:33:24.378Z,102780.91
2022-08-07T04:35:53.816Z,102793.69
2022-08-07T04:38:20.813Z,102793.75
2022-08-07T04:40:52.843Z,102787.97
2022-08-07T04:44:10.532Z,102789.03
2022-08-07T04:47:04.493Z,102789.13
2022-08-07T04:49:37.818Z,102793.88
2022-08-07T04:52:21.377Z,102789.13
2022-08-07T04:58:14.874Z,102795.56
2022-08-07T04:58:27.959Z,102795.53
2022-08-07T05:01:13.885Z,102797.56
2022-08-07T05:04:06.889Z,102804.34
2022-08-07T05:06:59.127Z,102794.44
2022-08-07T05:09:43.382Z,102789.38
2022-08-07T05:12:26.707Z,102789.91
2022-08-07T05:15:15.952Z,102784.22
2022-08-07T05:17:57.065Z,102781.72
2022-08-07T05:20:33.692Z,102782.44
2022-08-07T05:23:15.780Z,102786.31
2022-08-07T05:26:11.505Z,102785.03
2022-08-07T05:28:35.204Z,102784.06
2022-08-07T05:31:03.804Z,102788.09
2022-08-07T05:33:31.500Z,102791.03
2022-08-07T05:36:04.551Z,102786.69
2022-08-07T05:38:58.200Z,102785.66
2022-08-07T05:41:21.861Z,102787.50
2022-08-07T05:44:08.000Z,102781.00
2022-08-07T05:46:38.724Z,102777.22
2022-08-07T05:49:11.781Z,102771.63
2022-08-07T05:51:42.201Z,102779.06
2022-08-07T05:54:30.199Z,102772.97
2022-08-07T05:56:57.930Z,102778.47
2022-08-07T05:59:26.274Z,102791.34
2022-08-07T06:01:58.039Z,102792.97
2022-08-07T06:04:30.274Z,102796.25
2022-08-07T06:07:03.655Z,102803.81
2022-08-07T06:10:03.849Z,102807.03
2022-08-07T06:12:31.750Z,102800.09
2022-08-07T06:15:05.823Z,102789.94
2022-08-07T06:17:37.802Z,102785.50
2022-08-07T06:20:06.549Z,102792.53
2022-08-07T06:22:42.233Z,102794.56
2022-08-07T06:25:28.683Z,102795.38
2022-08-07T06:28:17.865Z,102794.44
2022-08-07T06:30:54.240Z,102798.53
2022-08-07T06:33:22.561Z,102799.91
2022-08-07T06:36:12.831Z,102796.88
2022-08-07T06:38:36.349Z,102809.13
2022-08-07T06:41:09.640Z,102798.81
2022-08-07T06:43:46.060Z,102795.75
2022-08-07T06:46:15.361Z,102791.00
2022-08-07T06:48:57.704Z,102792.44
2022-08-07T06:51:30.991Z,102795.06
2022-08-07T06:55:28.913Z,102793.75
2022-08-07T06:56:51.518Z,102790.94
2022-08-07T07:00:15.000Z,102793.09
2022-08-07T07:02:15.484Z,102792.06
2022-08-07T07:05:02.547Z,102786.06
2022-08-07T07:08:00.331Z,102782.69
2022-08-07T07:10:15.474Z,102779.09
2022-08-07T07:12:55.860Z,102778.50
2022-08-07T07:15:32.736Z,102792.50
2022-08-07T07:18:47.439Z,102802.03
2022-08-07T07:21:26.986Z,102789.03
2022-08-07T07:24:12.558Z,102799.53
2022-08-07T07:26:49.598Z,102801.84
2022-08-07T07:29:39.519Z,102807.84
2022-08-07T07:32:13.959Z,102805.44
2022-08-07T07:34:48.654Z,102805.81
2022-08-07T07:37:44.205Z,102809.53
2022-08-07T07:40:10.283Z,102802.63
2022-08-07T07:42:43.289Z,102800.41
2022-08-07T07:45:15.949Z,102800.53
2022-08-07T07:47:52.663Z,102798.25
2022-08-07T07:50:34.368Z,102802.66
2022-08-07T07:53:13.532Z,102799.91
2022-08-07T07:55:54.803Z,102790.84
2022-08-07T07:58:29.445Z,102795.38
2022-08-07T08:00:58.396Z,102785.13
2022-08-07T08:04:09.455Z,102787.22
2022-08-07T08:06:15.598Z,102783.47
2022-08-07T08:08:44.127Z,102777.34
2022-08-07T08:11:13.870Z,102781.44
2022-08-07T08:13:54.424Z,102776.75
2022-08-07T08:16:29.960Z,102781.56
2022-08-07T08:19:00.428Z,102783.84
2022-08-07T08:22:03.373Z,102780.25
2022-08-07T08:25:04.712Z,102781.47
2022-08-07T08:27:56.530Z,102774.06
2022-08-07T08:30:27.708Z,102767.72
2022-08-07T08:32:58.523Z,102770.22
2022-08-07T08:35:28.457Z,102775.56
2022-08-07T08:38:00.532Z,102772.94
2022-08-07T08:40:37.655Z,102773.19
2022-08-07T08:43:15.978Z,102766.38
2022-08-07T08:45:59.028Z,102764.97
2022-08-07T08:48:39.740Z,102759.97
2022-08-07T08:51:26.209Z,102760.69
2022-08-07T08:54:29.828Z,102753.47
2022-08-07T08:57:00.039Z,102754.16
2022-08-07T08:59:48.076Z,102759.00
2022-08-07T09:02:42.974Z,102756.03
2022-08-07T09:05:19.997Z,102758.13
2022-08-07T09:08:09.879Z,102744.59
2022-08-07T09:10:47.579Z,102743.88
2022-08-07T09:13:37.098Z,102745.56
2022-08-07T09:16:24.060Z,102746.34
2022-08-07T09:19:52.922Z,102744.78
2022-08-07T09:22:22.941Z,102744.59
2022-08-07T09:25:00.868Z,102751.22
2022-08-07T09:27:59.813Z,102749.88
2022-08-07T09:30:36.503Z,102745.38
2022-08-07T09:33:52.770Z,102740.75
2022-08-07T09:36:18.931Z,102738.41
2022-08-07T09:39:27.416Z,102749.09
2022-08-07T09:42:33.240Z,102742.84
2022-08-07T09:47:25.530Z,102727.88
2022-08-07T09:48:56.089Z,102738.47
2022-08-07T09:52:16.613Z,102740.88
2022-08-07T09:54:46.323Z,102730.41
2022-08-07T09:57:37.566Z,102726.09
2022-08-07T10:00:16.566Z,102726.72
2022-08-07T10:04:06.115Z,102722.09
2022-08-07T10:06:24.813Z,102718.16
2022-08-07T10:09:15.828Z,102717.66
2022-08-07T10:12:01.991Z,102715.47
2022-08-07T10:15:03.461Z,102717.09
2022-08-07T10:18:08.912Z,102708.06
2022-08-07T10:24:21.531Z,102702.25
2022-08-07T10:27:13.010Z,102696.69
2022-08-07T10:30:06.557Z,102696.47
2022-08-07T10:33:08.487Z,102691.09
2022-08-07T10:36:18.030Z,102683.34
2022-08-07T10:39:41.274Z,102683.59
2022-08-07T10:42:31.131Z,102683.59
2022-08-07T10:45:57.271Z,102686.56
2022-08-07T10:48:34.992Z,102670.63
2022-08-07T10:51:16.825Z,102668.09
2022-08-07T10:54:11.064Z,102670.59
2022-08-07T10:57:34.799Z,102666.78
2022-08-07T11:00:36.204Z,102664.31
2022-08-07T11:03:14.878Z,102662.44
2022-08-07T11:06:18.314Z,102660.72
2022-08-07T11:09:03.004Z,102655.13
2022-08-07T11:11:51.940Z,102656.19
2022-08-07T11:14:46.137Z,102646.16
2022-08-07T11:17:43.136Z,102639.22
2022-08-07T11:20:24.672Z,102646.03
2022-08-07T11:23:30.531Z,102639.25
2022-08-07T11:26:16.092Z,102644.69
2022-08-07T11:28:53.476Z,102632.22
2022-08-07T11:31:38.989Z,102635.44
2022-08-07T11:34:19.348Z,102638.38
2022-08-07T11:37:04.559Z,102633.91
2022-08-07T11:39:59.945Z,102628.97
2022-08-07T11:42:59.878Z,102630.22
2022-08-07T11:46:09.856Z,102624.84
2022-08-07T11:49:27.724Z,102625.22
2022-08-07T11:52:03.033Z,102626.19
2022-08-07T11:54:41.676Z,102609.28
2022-08-07T11:58:00.592Z,102604.66
2022-08-07T12:00:40.361Z,102609.00
2022-08-07T12:03:42.160Z,102604.81
2022-08-07T12:06:37.923Z,102595.00
2022-08-07T12:09:16.759Z,102596.78
2022-08-07T12:12:09.028Z,102600.19
2022-08-07T12:15:00.281Z,102600.41
2022-08-07T12:17:38.552Z,102604.34
2022-08-07T12:20:36.556Z,102604.81
2022-08-07T12:24:05.609Z,102602.81
2022-08-07T12:26:23.615Z,102612.19
2022-08-07T12:29:11.834Z,102612.16
2022-08-07T12:32:12.391Z,102609.13
2022-08-07T12:34:42.097Z,102599.78
2022-08-07T12:37:23.461Z,102603.84
2022-08-07T12:39:57.633Z,102602.44
2022-08-07T12:42:28.591Z,102601.28
2022-08-07T12:45:04.485Z,102599.41
2022-08-07T12:47:55.016Z,102597.06
2022-08-07T12:50:40.291Z,102598.06
2022-08-07T12:54:37.158Z,102596.69
2022-08-07T12:56:37.988Z,102601.47
2022-08-07T12:59:08.393Z,102591.56
2022-08-07T13:02:09.813Z,102595.91
2022-08-07T13:05:02.325Z,102594.97
2022-08-07T13:08:14.363Z,102588.69
2022-08-07T13:10:55.951Z,102591.38
2022-08-07T13:13:50.079Z,102580.00
2022-08-07T13:16:31.149Z,102575.84
2022-08-07T13:19:34.887Z,102582.84
2022-08-07T13:22:27.549Z,102580.91
2022-08-07T13:25:00.488Z,102581.63
2022-08-07T13:28:12.603Z,102583.78
2022-08-07T13:30:39.924Z,102574.59
2022-08-07T13:34:31.527Z,102580.09
2022-08-07T13:36:21.032Z,102565.09
2022-08-07T13:39:12.954Z,102565.31
2022-08-07T13:41:50.994Z,102570.13
2022-08-07T13:44:34.426Z,102562.25
2022-08-07T13:47:09.357Z,102559.91
2022-08-07T13:50:35.519Z,102562.53
2022-08-07T13:52:39.541Z,102558.09
2022-08-07T13:55:19.590Z,102557.59
2022-08-07T13:58:31.421Z,102562.78
2022-08-07T14:01:10.683Z,102558.38
2022-08-07T14:04:06.964Z,102557.44
2022-08-07T14:06:35.836Z,102561.44
2022-08-07T14:09:05.129Z,102563.38
2022-08-07T14:12:00.077Z,102559.22
2022-08-07T14:14:48.928Z,102554.03
2022-08-07T14:18:12.689Z,102562.34
2022-08-07T14:20:40.040Z,102563.69
2022-08-07T14:23:31.674Z,102553.00
2022-08-07T14:26:30.099Z,102561.97
2022-08-07T14:29:10.669Z,102556.34
2022-08-07T14:31:56.065Z,102561.78
2022-08-07T14:34:29.530Z,102557.75
2022-08-07T14:36:57.725Z,102562.84
2022-08-07T14:40:16.275Z,102558.88
2022-08-07T14:42:20.691Z,102565.81
2022-08-07T14:44:53.544Z,102560.16
2022-08-07T14:47:21.072Z,102561.53
2022-08-07T14:49:56.923Z,102556.78
2022-08-07T14:52:28.113Z,102562.47
2022-08-07T14:54:58.589Z,102550.31
2022-08-07T14:57:58.477Z,102556.56
2022-08-07T15:00:20.651Z,102550.63
2022-08-07T15:02:59.889Z,102549.63
2022-08-07T15:05:27.537Z,102551.75
2022-08-07T15:07:58.983Z,102546.50
2022-08-07T15:10:29.689Z,102541.84
2022-08-07T15:13:00.474Z,102548.31
2022-08-07T15:18:45.258Z,102536.97
2022-08-07T15:21:44.240Z,102538.66
2022-08-07T15:25:14.409Z,102542.31
2022-08-07T15:27:17.196Z,102532.09
2022-08-07T15:30:08.531Z,102532.88
2022-08-07T15:38:30.132Z,102534.34
2022-08-07T15:41:22.755Z,102530.06
2022-08-07T15:43:59.171Z,102520.81
2022-08-07T15:49:17.342Z,102525.53
2022-08-07T15:54:34.672Z,102524.91
2022-08-07T15:57:27.650Z,102523.28
2022-08-07T15:59:59.313Z,102516.53
2022-08-07T16:02:29.062Z,102511.94
2022-08-07T16:05:15.537Z,102513.84
2022-08-07T16:08:32.107Z,102511.16
2022-08-07T16:10:37.456Z,102505.78
2022-08-07T16:13:57.555Z,102505.88
2022-08-07T16:16:42.861Z,102498.91
2022-08-07T16:19:16.223Z,102504.50
2022-08-07T16:22:05.058Z,102501.28
2022-08-07T16:24:55.163Z,102503.22
2022-08-07T16:27:40.447Z,102502.66
2022-08-07T16:30:29.749Z,102500.16
2022-08-07T16:34:01.956Z,102504.41
2022-08-07T16:36:22.114Z,102503.72
2022-08-07T16:39:20.798Z,102511.19
2022-08-07T16:42:38.080Z,102516.94
2022-08-07T16:46:11.002Z,102504.53
2022-08-07T16:48:58.464Z,102512.84
2022-08-07T16:52:41.694Z,102500.47
2022-08-07T16:55:11.492Z,102506.84
2022-08-07T16:58:03.918Z,102505.03
2022-08-07T17:00:40.773Z,102510.50
2022-08-07T17:03:58.528Z,102513.13
2022-08-07T17:06:31.347Z,102506.97
2022-08-07T17:10:06.503Z,102500.50
2022-08-07T17:13:24.450Z,102506.03
2022-08-07T17:16:14.103Z,102509.53
2022-08-07T17:19:15.537Z,102510.78
2022-08-07T17:21:52.275Z,102506.06
2022-08-07T17:24:47.242Z,102502.19
2022-08-07T17:27:19.906Z,102506.06
2022-08-07T17:30:19.886Z,102502.28
2022-08-07T17:34:09.855Z,102510.28
2022-08-07T17:36:20.853Z,102506.91
2022-08-07T17:39:10.698Z,102501.34
2022-08-07T17:42:04.914Z,102504.41
2022-08-07T17:44:49.841Z,102508.53
2022-08-07T17:47:38.404Z,102505.03
2022-08-07T17:50:19.330Z,102504.72
2022-08-07T17:52:59.854Z,102504.59
2022-08-07T17:55:55.601Z,102506.44
2022-08-07T17:58:32.963Z,102514.75
2022-08-07T18:01:18.073Z,102511.91
2022-08-07T18:04:06.995Z,102509.09
2022-08-07T18:07:20.860Z,102509.31
2022-08-07T18:10:06.691Z,102512.38
2022-08-07T18:12:39.247Z,102520.91
2022-08-07T18:15:19.049Z,102513.63
2022-08-07T18:18:46.849Z,102523.56
2022-08-07T18:21:29.546Z,102507.75
2022-08-07T18:24:33.132Z,102517.91
2022-08-07T18:27:17.284Z,102514.69
2022-08-07T18:30:06.951Z,102517.13
2022-08-07T18:32:52.845Z,102521.78
2022-08-07T18:35:50.252Z,102525.66
2022-08-07T18:38:58.642Z,102529.72
2022-08-07T18:41:50.212Z,102533.78
2022-08-07T18:45:40.030Z,102529.88
2022-08-07T18:47:47.633Z,102534.56
2022-08-07T18:50:39.042Z,102531.50
2022-08-07T18:53:41.257Z,102528.03
2022-08-07T18:56:58.265Z,102537.94
2022-08-07T18:59:48.028Z,102547.03
2022-08-07T19:02:42.604Z,102545.81
2022-08-07T19:05:22.350Z,102546.41
2022-08-07T19:08:07.014Z,102551.06
2022-08-07T19:10:52.311Z,102550.03
2022-08-07T19:13:43.994Z,102547.81
2022-08-07T19:17:09.351Z,102545.50
2022-08-07T19:20:07.562Z,102551.19
2022-08-07T19:23:58.211Z,102554.34
2022-08-07T19:26:24.686Z,102550.66
2022-08-07T19:30:58.884Z,102561.72
2022-08-07T19:32:10.876Z,102557.00
2022-08-07T19:34:48.550Z,102567.09
2022-08-07T19:37:20.471Z,102572.13
2022-08-07T19:40:02.024Z,102572.03
2022-08-07T19:42:40.262Z,102575.66
2022-08-07T19:45:12.319Z,102582.03
2022-08-07T19:47:42.219Z,102588.06
2022-08-07T19:50:45.372Z,102587.00
2022-08-07T19:52:58.424Z,102584.50
2022-08-07T19:55:56.407Z,102591.28
2022-08-07T19:58:15.741Z,102599.72
2022-08-07T20:00:54.046Z,102593.06
2022-08-07T20:03:34.977Z,102598.63
2022-08-07T20:06:04.419Z,102601.38
2022-08-07T20:08:35.573Z,102592.66
2022-08-07T20:11:10.039Z,102595.66
2022-08-07T20:13:50.153Z,102600.84
2022-08-07T20:16:35.925Z,102602.78
2022-08-07T20:19:05.625Z,102600.69
2022-08-07T20:21:41.702Z,102604.69
2022-08-07T20:24:18.002Z,102608.31
2022-08-07T20:26:51.953Z,102606.25
2022-08-07T20:29:49.129Z,102606.59
2022-08-07T20:32:22.922Z,102604.69
2022-08-07T20:35:04.807Z,102610.50
2022-08-07T20:37:55.552Z,102609.44
2022-08-07T20:40:33.025Z,102609.16
2022-08-07T20:43:02.795Z,102617.41
2022-08-07T20:46:26.923Z,102613.69
2022-08-07T20:48:29.875Z,102615.06
2022-08-07T20:51:02.926Z,102610.16
2022-08-07T20:54:03.343Z,102609.69
2022-08-07T20:56:25.946Z,102611.03
2022-08-07T20:58:55.705Z,102604.88
2022-08-07T21:01:25.961Z,102610.47
2022-08-07T21:04:19.499Z,102606.47
2022-08-07T21:06:53.638Z,102604.75
2022-08-07T21:09:24.551Z,102620.03
2022-08-07T21:12:00.218Z,102627.63
2022-08-07T21:14:33.134Z,102616.84
2022-08-07T21:18:03.662Z,102628.22
2022-08-07T21:20:11.023Z,102620.88
2022-08-07T21:22:54.526Z,102621.84
2022-08-07T21:26:07.163Z,102617.63
2022-08-07T21:28:48.174Z,102621.75
2022-08-07T21:32:41.786Z,102617.41
2022-08-07T21:34:33.833Z,102617.75
2022-08-07T21:37:07.699Z,102613.03
2022-08-07T21:39:59.446Z,102612.41
2022-08-07T21:42:46.150Z,102610.75
2022-08-07T21:46:10.584Z,102615.53
2022-08-07T21:48:48.242Z,102615.06
2022-08-07T21:51:32.088Z,102610.53
2022-08-07T21:54:27.430Z,102609.88
2022-08-07T21:57:39.510Z,102616.66
2022-08-07T22:00:23.149Z,102617.69
2022-08-07T22:03:05.726Z,102614.59
2022-08-07T22:05:46.174Z,102622.97
2022-08-07T22:08:24.753Z,102619.06
2022-08-07T22:10:55.267Z,102621.19
2022-08-07T22:13:50.532Z,102627.78
2022-08-07T22:16:43.879Z,102623.53
2022-08-07T22:19:23.509Z,102626.38
2022-08-07T22:22:21.378Z,102632.78
2022-08-07T22:25:10.979Z,102628.75
2022-08-07T22:28:20.198Z,102626.97
2022-08-07T22:31:05.565Z,102627.47
2022-08-07T22:33:57.101Z,102641.84
2022-08-07T22:37:01.485Z,102640.84
2022-08-07T22:39:52.811Z,102635.94
2022-08-07T22:42:25.942Z,102632.53
2022-08-07T22:45:00.031Z,102631.03
2022-08-07T22:47:38.246Z,102649.50
2022-08-07T22:50:39.628Z,102648.88
2022-08-07T22:54:07.709Z,102650.66
2022-08-07T22:56:56.851Z,102649.84
2022-08-07T22:59:52.682Z,102655.88
2022-08-07T23:02:31.286Z,102659.34
2022-08-07T23:06:08.908Z,102658.84
2022-08-07T23:08:46.180Z,102656.72
2022-08-07T23:11:41.331Z,102654.09
2022-08-07T23:14:35.694Z,102659.66
2022-08-07T23:17:37.818Z,102660.16
2022-08-07T23:20:51.349Z,102654.91
2022-08-07T23:24:05.855Z,102658.34
2022-08-07T23:26:56.277Z,102657.53
2022-08-07T23:30:35.990Z,102664.34
2022-08-07T23:34:21.701Z,102667.63
2022-08-07T23:36:00.225Z,102660.25
2022-08-07T23:38:48.200Z,102657.66
2022-08-07T23:42:04.870Z,102650.13
2022-08-07T23:44:53.789Z,102655.19
2022-08-07T23:47:48.311Z,102660.84
2022-08-07T23:50:36.672Z,102673.59
2022-08-07T23:53:22.697Z,102672.25
2022-08-07T23:56:21.332Z,102672.72
2022-08-07T23:58:59.097Z,102670.41
